Etusivu
METAR-TAF:

METAR-TAF

Lentoasemat :

Leipzig, Saksa

Leveyspiiri: 51-25N, Pituuspiiri: 012-14E, korkeus merenpinnasta: 144 m

Tämänhetkinen sää

Tämä raportti tehtiin 15 minuuttia sitten, kello 21.50 UTC
Tuuli 3 kn pohjoisesta/koillisesta
Lämpötila 3°C
Kosteus 81%
Ilmanpaine 1024 hPa
Näkyvyys 10 km tai enemmän
Muutamia pilviä 4300 ft:n korkeudessa

METAR: EDDP 212150Z AUTO 02003KT 9999 FEW043 03/00 Q1024 NOSIG

Aika: 00:05 (22:05 UTC)

Sääennuste

Tämä raportti tehtiin 5 tuntia ja 5 minuuttia sitten, kello 17.00 UTC
Ennuste voimassa 21. päivästä klo 18 UTC - 22. päivään klo 18 UTC
Tuuli 6 kn pohjoisesta/koillisesta
Näkyvyys 10 km tai enemmän
Hajanaisia pilviä 3000 ft:n korkeudessa

TAF: EDDP 211700Z 2118/2218 02006KT 9999 SCT030

Säähavainnot ja -ennusteet yli 4000 lentoasemalta (METAR- ja TAF-raportit).

Käytössä olevat sääasemat on merkitty karttaan keltaisilla ja punaisilla pisteillä.

Aseta hiiri pisteen päälle nähdäksesi sääaseman nimen.

Klikkaa sitten nähdäksesi säähavainnot ja -ennusteet.

Kartan vaihtaminen: klikkaa mustalla rastilla varustettuja vihreitä pisteitä, niin voit zoomata sisään; viivalla varustettua vihreää pistettä, niin voit zoomata ulos tai vihreitä nuolia, niin pääset viereisille kartoille.


METAR-TAF: